createdAt,value
2023-04-22T00:00:53.889Z,13.81
2023-04-22T00:05:54.141Z,13.84
2023-04-22T00:10:53.135Z,13.73
2023-04-22T00:15:54.274Z,13.77
2023-04-22T00:20:56.329Z,13.88
2023-04-22T00:25:56.395Z,13.61
2023-04-22T00:30:55.508Z,13.43
2023-04-22T00:35:56.582Z,13.29
2023-04-22T00:40:58.649Z,13.52
2023-04-22T00:45:59.744Z,13.47
2023-04-22T00:50:58.830Z,13.44
2023-04-22T00:55:59.929Z,13.59
2023-04-22T01:01:01.108Z,13.62
2023-04-22T01:06:03.166Z,13.51
2023-04-22T01:11:03.255Z,13.27
2023-04-22T01:16:02.328Z,13.27
2023-04-22T01:21:03.434Z,13.21
2023-04-22T01:26:05.512Z,13.21
2023-04-22T01:31:04.570Z,13.11
2023-04-22T01:36:05.652Z,13.11
2023-04-22T01:41:07.745Z,13.15
2023-04-22T01:46:06.862Z,13.07
2023-04-22T01:51:08.916Z,12.97
2023-04-22T01:56:07.969Z,12.96
2023-04-22T02:01:10.057Z,12.95
2023-04-22T02:06:09.111Z,12.88
2023-04-22T02:11:10.189Z,13.03
2023-04-22T02:16:11.288Z,13.11
2023-04-22T02:21:12.339Z,12.95
2023-04-22T02:26:13.408Z,12.84
2023-04-22T02:31:14.511Z,12.85
2023-04-22T02:36:15.540Z,12.63
2023-04-22T02:41:17.649Z,12.60
2023-04-22T02:46:17.803Z,12.63
2023-04-22T02:51:16.848Z,12.70
2023-04-22T02:56:15.931Z,12.79
2023-04-22T03:01:19.011Z,12.69
2023-04-22T03:06:20.065Z,12.57
2023-04-22T03:11:21.156Z,12.51
2023-04-22T03:16:22.259Z,12.42
2023-04-22T03:21:24.289Z,12.26
2023-04-22T03:26:24.362Z,12.38
2023-04-22T03:31:23.452Z,12.54
2023-04-22T03:36:25.613Z,12.54
2023-04-22T03:41:25.679Z,12.44
2023-04-22T03:46:25.814Z,12.37
2023-04-22T03:51:24.915Z,12.31
2023-04-22T03:56:25.969Z,12.31
2023-04-22T04:01:28.044Z,12.31
2023-04-22T04:06:28.116Z,12.26
2023-04-22T04:11:28.189Z,12.13
2023-04-22T04:16:27.344Z,12.08
2023-04-22T04:21:28.353Z,12.15
2023-04-22T04:26:29.405Z,12.06
2023-04-22T04:31:30.500Z,12.06
2023-04-22T04:36:31.535Z,12.02
2023-04-22T04:41:32.624Z,11.97
2023-04-22T04:46:34.858Z,11.93
2023-04-22T04:51:33.983Z,11.94
2023-04-22T04:56:36.063Z,11.94
2023-04-22T05:01:35.194Z,12.02
2023-04-22T05:06:37.225Z,12.06
2023-04-22T05:11:36.282Z,12.13
2023-04-22T05:16:37.409Z,12.37
2023-04-22T05:21:38.453Z,12.46
2023-04-22T05:26:40.787Z,12.62
2023-04-22T05:31:40.348Z,12.52
2023-04-22T05:36:39.410Z,12.78
2023-04-22T05:41:41.512Z,13.07
2023-04-22T05:46:40.599Z,13.41
2023-04-22T05:51:41.682Z,13.69
2023-04-22T05:56:44.760Z,13.69
2023-04-22T06:01:43.834Z,14.10
2023-04-22T06:06:48.785Z,14.19
2023-04-22T06:11:45.874Z,14.24
2023-04-22T06:16:47.961Z,14.16
2023-04-22T06:21:48.044Z,14.37
2023-04-22T06:26:48.148Z,14.68
2023-04-22T06:31:47.262Z,14.84
2023-04-22T06:36:49.324Z,14.93
2023-04-22T06:41:48.380Z,14.78
2023-04-22T06:46:50.498Z,14.83
2023-04-22T06:51:50.555Z,14.75
2023-04-22T06:56:50.646Z,15.08
2023-04-22T07:01:49.712Z,15.23
2023-04-22T07:06:50.787Z,15.17
2023-04-22T07:11:52.876Z,15.15
2023-04-22T07:16:51.963Z,15.26
2023-04-22T07:21:53.059Z,15.41
2023-04-22T07:26:55.137Z,15.56
2023-04-22T07:31:54.230Z,15.56
2023-04-22T07:36:55.293Z,15.64
2023-04-22T07:41:57.376Z,15.99
2023-04-22T07:46:56.454Z,16.26
2023-04-22T07:51:57.524Z,16.48
2023-04-22T07:56:58.634Z,16.68
2023-04-22T08:01:59.716Z,16.98
2023-04-22T08:07:01.906Z,17.18
2023-04-22T08:12:00.915Z,17.43
2023-04-22T08:17:01.964Z,17.57
2023-04-22T08:22:04.043Z,17.73
2023-04-22T08:27:03.115Z,17.87
2023-04-22T08:32:05.154Z,18.04
2023-04-22T08:37:04.267Z,18.37
2023-04-22T08:42:05.523Z,18.99
2023-04-22T08:47:07.744Z,19.11
2023-04-22T08:52:06.983Z,19.32
2023-04-22T08:57:08.032Z,19.70
2023-04-22T09:02:11.160Z,19.46
2023-04-22T09:07:10.189Z,19.63
2023-04-22T09:12:11.585Z,19.76
2023-04-22T09:17:12.671Z,19.40
2023-04-22T09:22:13.773Z,19.33
2023-04-22T09:27:14.869Z,19.14
2023-04-22T09:32:16.167Z,19.55
2023-04-22T09:37:17.471Z,19.53
2023-04-22T09:42:19.557Z,19.54
2023-04-22T09:47:18.609Z,18.98
2023-04-22T09:52:19.690Z,19.06
2023-04-22T09:57:20.885Z,18.77
2023-04-22T10:02:21.999Z,18.42
2023-04-22T10:07:23.079Z,18.37
2023-04-22T10:12:34.895Z,18.59
2023-04-22T10:17:24.152Z,18.27
2023-04-22T10:22:25.206Z,18.33
2023-04-22T10:27:26.261Z,18.03
2023-04-22T10:32:27.374Z,17.99
2023-04-22T10:37:31.794Z,18.27
2023-04-22T10:42:29.622Z,18.54
2023-04-22T10:47:29.752Z,18.36
2023-04-22T10:52:28.819Z,18.67
2023-04-22T10:57:30.944Z,18.82
2023-04-22T11:02:30.228Z,18.98
2023-04-22T11:07:31.396Z,18.74
2023-04-22T11:12:33.497Z,18.83
2023-04-22T11:17:32.589Z,18.50
2023-04-22T11:22:34.646Z,18.92
2023-04-22T11:27:33.738Z,18.54
2023-04-22T11:32:34.858Z,19.08
2023-04-22T11:37:36.952Z,18.86
2023-04-22T11:42:36.028Z,19.47
2023-04-22T11:47:37.175Z,19.78
2023-04-22T11:52:39.237Z,20.27
2023-04-22T11:57:39.307Z,19.61
2023-04-22T12:02:39.535Z,19.43
2023-04-22T12:07:38.565Z,19.66
2023-04-22T12:12:41.650Z,19.53
2023-04-22T12:17:40.865Z,20.23
2023-04-22T12:22:42.063Z,19.91
2023-04-22T12:27:44.121Z,20.08
2023-04-22T12:32:45.237Z,19.47
2023-04-22T12:37:45.352Z,19.90
2023-04-22T12:42:45.449Z,20.21
2023-04-22T12:47:44.610Z,19.84
2023-04-22T12:52:45.707Z,20.24
2023-04-22T12:57:47.824Z,20.46
2023-04-22T13:02:48.040Z,20.42
2023-04-22T13:07:53.534Z,20.00
2023-04-22T13:12:48.055Z,19.88
2023-04-22T13:17:49.166Z,19.88
2023-04-22T13:22:47.974Z,20.10
2023-04-22T13:27:50.102Z,19.86
2023-04-22T13:32:50.282Z,19.91
2023-04-22T13:37:49.374Z,20.30
2023-04-22T13:42:50.441Z,19.98
2023-04-22T13:47:51.622Z,20.42
2023-04-22T13:52:52.668Z,20.62
2023-04-22T13:57:54.722Z,19.97
2023-04-22T14:02:54.941Z,19.63
2023-04-22T14:07:55.997Z,19.68
2023-04-22T14:12:56.075Z,19.86
2023-04-22T14:17:55.215Z,20.06
2023-04-22T14:22:57.315Z,20.51
2023-04-22T14:27:56.390Z,20.64
2023-04-22T14:32:58.528Z,20.13
2023-04-22T14:37:58.637Z,20.51
2023-04-22T14:42:58.728Z,20.68
2023-04-22T14:47:59.851Z,20.20
2023-04-22T14:52:59.905Z,20.08
2023-04-22T14:57:58.970Z,20.10
2023-04-22T15:03:00.150Z,19.98
2023-04-22T15:08:01.484Z,20.16
2023-04-22T15:13:04.569Z,20.65
2023-04-22T15:18:04.756Z,21.38
2023-04-22T15:23:04.823Z,20.74
2023-04-22T15:28:03.921Z,20.46
2023-04-22T15:33:06.039Z,20.41
2023-04-22T15:38:05.058Z,20.30
2023-04-22T15:43:06.448Z,19.97
2023-04-22T15:48:09.488Z,20.05
2023-04-22T15:53:08.556Z,19.91
2023-04-22T15:58:09.656Z,19.94
2023-04-22T16:03:10.912Z,20.42
2023-04-22T16:08:12.073Z,20.09
2023-04-22T16:13:13.212Z,19.86
2023-04-22T16:18:14.219Z,19.76
2023-04-22T16:23:15.295Z,19.66
2023-04-22T16:28:17.387Z,19.55
2023-04-22T16:33:17.436Z,19.57
2023-04-22T16:38:17.525Z,19.36
2023-04-22T16:43:16.585Z,19.36
2023-04-22T16:48:17.675Z,19.17
2023-04-22T16:53:19.751Z,18.99
2023-04-22T16:58:19.852Z,19.06
2023-04-22T17:03:19.014Z,19.06
2023-04-22T17:08:22.055Z,18.82
2023-04-22T17:13:21.157Z,18.82
2023-04-22T17:18:22.245Z,18.68
2023-04-22T17:23:23.322Z,18.46
2023-04-22T17:28:25.421Z,18.46
2023-04-22T17:33:25.517Z,18.27
2023-04-22T17:38:25.612Z,18.27
2023-04-22T17:43:24.700Z,18.31
2023-04-22T17:48:25.790Z,18.09
2023-04-22T17:53:27.883Z,17.74
2023-04-22T17:58:27.076Z,17.69
2023-04-22T18:03:29.510Z,17.62
2023-04-22T18:08:28.840Z,17.59
2023-04-22T18:13:30.903Z,17.50
2023-04-22T18:18:31.985Z,17.59
2023-04-22T18:23:32.078Z,17.46
2023-04-22T18:28:31.216Z,17.40
2023-04-22T18:33:33.293Z,17.22
2023-04-22T18:38:33.395Z,17.10
2023-04-22T18:43:32.510Z,16.95
2023-04-22T18:48:34.639Z,16.77
2023-04-22T18:53:33.780Z,16.62
2023-04-22T18:58:35.951Z,16.48
2023-04-22T19:03:35.321Z,16.48
2023-04-22T19:08:37.628Z,16.53
2023-04-22T19:13:37.097Z,16.58
2023-04-22T19:18:38.211Z,16.56
2023-04-22T19:23:39.283Z,16.60
2023-04-22T19:28:41.378Z,16.50
2023-04-22T19:33:42.473Z,16.52
2023-04-22T19:38:42.927Z,16.52
2023-04-22T19:43:42.243Z,16.53
2023-04-22T19:48:43.627Z,16.62
2023-04-22T19:53:42.931Z,16.44
2023-04-22T19:58:44.012Z,16.12
2023-04-22T20:03:45.508Z,15.93
2023-04-22T20:08:44.652Z,15.78
2023-04-22T20:13:47.444Z,15.70
2023-04-22T20:18:47.198Z,15.68
2023-04-22T20:23:48.267Z,15.63
2023-04-22T20:28:49.377Z,15.79
2023-04-22T20:33:50.580Z,15.93
2023-04-22T20:38:51.681Z,15.99
2023-04-22T20:43:53.785Z,16.11
2023-04-22T20:48:52.853Z,15.89
2023-04-22T20:53:53.940Z,15.72
2023-04-22T20:58:55.040Z,15.66
2023-04-22T21:03:57.407Z,15.68
2023-04-22T21:08:56.893Z,15.63
2023-04-22T21:13:59.110Z,15.56
2023-04-22T21:18:58.236Z,15.64
2023-04-22T21:24:00.340Z,15.68
2023-04-22T21:28:59.427Z,15.64
2023-04-22T21:34:00.588Z,15.48
2023-04-22T21:39:01.760Z,15.11
2023-04-22T21:44:06.762Z,14.95
2023-04-22T21:49:05.677Z,14.98
2023-04-22T21:54:06.182Z,15.11
2023-04-22T21:59:05.414Z,14.94
2023-04-22T22:04:06.778Z,14.91
2023-04-22T22:09:07.139Z,15.06
2023-04-22T22:14:08.572Z,15.15
2023-04-22T22:19:08.774Z,15.19
2023-04-22T22:24:10.015Z,15.03
2023-04-22T22:29:11.299Z,14.78
2023-04-22T22:34:12.494Z,14.71
2023-04-22T22:39:14.584Z,14.65
2023-04-22T22:44:13.687Z,14.62
2023-04-22T22:49:14.918Z,14.53
2023-04-22T22:54:17.038Z,14.47
2023-04-22T22:59:16.196Z,14.07
2023-04-22T23:04:19.475Z,13.91
2023-04-22T23:09:18.613Z,14.07
2023-04-22T23:14:19.708Z,14.19
2023-04-22T23:19:22.776Z,13.98
2023-04-22T23:24:21.846Z,13.92
2023-04-22T23:29:23.910Z,13.98
2023-04-22T23:34:24.974Z,13.88
2023-04-22T23:39:24.079Z,14.02
2023-04-22T23:44:25.151Z,14.04
2023-04-22T23:49:26.227Z,14.20
2023-04-22T23:54:27.295Z,14.12
2023-04-22T23:59:28.375Z,14.16
